Time,TemperatureF,DewpointF,PressureIn,WindDirection,WindDirectionDegrees,WindSpeedMPH,WindSpeedGustMPH,Humidity,HourlyPrecipIn,Conditions,Clouds,dailyrainin,SolarRadiationWatts/m^2,SoftwareType,DateUTC
2013-12-18 00:22:00,-9.0,-12.0,-100.00,North,2,2.0,5.0,85,-99.99,,,0.00,0.000000,,2013-12-18 09:22:00,
2013-12-18 00:33:00,-9.0,-12.0,-100.00,North,2,2.0,5.0,85,-99.99,,,0.00,0.000000,,2013-12-18 09:33:00,
2013-12-18 00:43:00,-9.0,-12.0,-100.00,North,2,2.0,5.0,85,-99.99,,,0.00,0.000000,,2013-12-18 09:43:00,
2013-12-18 00:53:00,-9.0,-12.0,-100.00,North,2,2.0,5.0,85,-99.99,,,0.00,0.000000,,2013-12-18 09:53:00,
2013-12-18 01:23:00,-12.0,-16.0,-100.00,North,-999,0.0,6.0,83,0.00,,,0.00,0.000000,,2013-12-18 10:23:00,
2013-12-18 01:33:00,-12.0,-16.0,-100.00,North,-999,0.0,6.0,83,0.00,,,0.00,0.000000,,2013-12-18 10:33:00,
2013-12-18 01:42:00,-12.0,-16.0,-100.00,North,-999,0.0,6.0,83,0.00,,,0.00,0.000000,,2013-12-18 10:42:00,
2013-12-18 01:52:00,-12.0,-16.0,-100.00,North,-999,0.0,6.0,83,0.00,,,0.00,0.000000,,2013-12-18 10:52:00,
2013-12-18 02:23:00,-13.0,-16.0,-100.00,North,-999,0.0,1.0,84,0.00,,,-99.99,0.000000,,2013-12-18 11:23:00,
2013-12-18 02:33:00,-13.0,-16.0,-100.00,North,-999,0.0,1.0,84,0.00,,,-99.99,0.000000,,2013-12-18 11:33:00,
2013-12-18 02:42:00,-13.0,-16.0,-100.00,North,-999,0.0,1.0,84,0.00,,,-99.99,0.000000,,2013-12-18 11:42:00,
2013-12-18 02:52:00,-13.0,-16.0,-100.00,North,-999,0.0,1.0,84,0.00,,,-99.99,0.000000,,2013-12-18 11:52:00,
2013-12-18 03:22:00,-13.0,-16.0,-100.00,North,-999,0.0,1.0,85,0.00,,,0.00,0.000000,,2013-12-18 12:22:00,
2013-12-18 03:32:00,-13.0,-16.0,-100.00,North,-999,0.0,1.0,85,0.00,,,0.00,0.000000,,2013-12-18 12:32:00,
2013-12-18 03:42:00,-13.0,-16.0,-100.00,North,-999,0.0,1.0,85,0.00,,,0.00,0.000000,,2013-12-18 12:42:00,
2013-12-18 04:22:00,-13.0,-16.0,-100.00,North,-999,0.0,2.0,86,-99.99,,,0.00,0.000000,,2013-12-18 13:22:00,
2013-12-18 04:32:00,-13.0,-16.0,-100.00,North,-999,0.0,2.0,86,-99.99,,,0.00,0.000000,,2013-12-18 13:32:00,
2013-12-18 05:21:00,-13.0,-17.0,-100.00,North,-999,0.0,2.0,83,-99.99,,,0.00,0.000000,,2013-12-18 14:21:00,
2013-12-18 05:32:00,-13.0,-17.0,-100.00,North,-999,0.0,2.0,83,-99.99,,,0.00,0.000000,,2013-12-18 14:32:00,
2013-12-18 05:52:00,-13.0,-17.0,-100.00,North,-999,0.0,2.0,83,-99.99,,,0.00,0.000000,,2013-12-18 14:52:00,
2013-12-18 06:21:00,-15.0,-19.0,-100.00,North,-999,0.0,1.0,83,0.00,,,0.00,0.000000,,2013-12-18 15:21:00,
2013-12-18 06:33:00,-15.0,-19.0,-100.00,North,-999,0.0,1.0,83,0.00,,,0.00,0.000000,,2013-12-18 15:33:00,
2013-12-18 07:23:00,-12.0,-15.0,-100.00,North,-999,0.0,1.0,86,-99.99,,,0.00,0.000000,,2013-12-18 16:23:00,
2013-12-18 07:33:00,-12.0,-15.0,-100.00,North,-999,0.0,1.0,86,-99.99,,,0.00,0.000000,,2013-12-18 16:33:00,
2013-12-18 07:42:00,-12.0,-15.0,-100.00,North,-999,0.0,1.0,86,-99.99,,,0.00,0.000000,,2013-12-18 16:42:00,
2013-12-18 08:22:00,-11.0,-14.0,-100.00,North,-999,0.0,1.0,85,0.00,,,0.00,0.000000,,2013-12-18 17:22:00,
2013-12-18 08:33:00,-11.0,-14.0,-100.00,North,-999,0.0,1.0,85,0.00,,,0.00,0.000000,,2013-12-18 17:33:00,
2013-12-18 08:42:00,-11.0,-14.0,-100.00,North,-999,0.0,1.0,85,0.00,,,0.00,0.000000,,2013-12-18 17:42:00,
2013-12-18 09:22:00,-10.0,-13.0,-100.00,North,-999,0.0,1.0,86,0.00,,,0.00,0.000000,,2013-12-18 18:22:00,
2013-12-18 09:32:00,-10.0,-13.0,-100.00,North,-999,0.0,1.0,86,0.00,,,0.00,0.000000,,2013-12-18 18:32:00,
2013-12-18 09:42:00,-10.0,-13.0,-100.00,North,-999,0.0,1.0,86,0.00,,,0.00,0.000000,,2013-12-18 18:42:00,
2013-12-18 09:52:00,-10.0,-13.0,-100.00,North,-999,0.0,1.0,86,0.00,,,0.00,0.000000,,2013-12-18 18:52:00,
2013-12-18 10:21:00,-9.0,-12.0,-100.00,North,-999,0.0,1.0,87,-99.99,,,0.00,0.000000,,2013-12-18 19:21:00,
2013-12-18 10:32:00,-9.0,-12.0,-100.00,North,-999,0.0,1.0,87,-99.99,,,0.00,0.000000,,2013-12-18 19:32:00,
2013-12-18 18:21:00,23.0,23.0,-100.00,ENE,72,2.0,9.0,100,-99.99,,,0.00,0.000000,,2013-12-19 03:21:00,
2013-12-18 18:33:00,23.0,23.0,-100.00,ENE,72,2.0,9.0,100,-99.99,,,0.00,0.000000,,2013-12-19 03:33:00,
2013-12-18 18:43:00,23.0,23.0,-100.00,ENE,72,2.0,9.0,100,-99.99,,,0.00,0.000000,,2013-12-19 03:43:00,
2013-12-18 18:53:00,23.0,23.0,-100.00,ENE,72,2.0,9.0,100,-99.99,,,0.00,0.000000,,2013-12-19 03:53:00,
2013-12-18 19:23:00,26.0,24.0,-100.00,East,82,3.0,10.0,93,0.00,,,-99.99,0.000000,,2013-12-19 04:23:00,
2013-12-18 19:33:00,26.0,24.0,-100.00,East,82,3.0,10.0,93,0.00,,,-99.99,0.000000,,2013-12-19 04:33:00,
2013-12-18 19:43:00,26.0,24.0,-100.00,East,82,3.0,10.0,93,0.00,,,-99.99,0.000000,,2013-12-19 04:43:00,
2013-12-18 19:52:00,26.0,24.0,-100.00,East,82,3.0,10.0,93,0.00,,,-99.99,0.000000,,2013-12-19 04:52:00,
2013-12-18 20:22:00,27.0,23.0,-100.00,NE,38,4.0,12.0,86,0.00,,,-99.99,0.000000,,2013-12-19 05:22:00,
2013-12-18 20:33:00,27.0,23.0,-100.00,NE,38,4.0,12.0,86,0.00,,,-99.99,0.000000,,2013-12-19 05:33:00,
2013-12-18 20:42:00,27.0,23.0,-100.00,NE,38,4.0,12.0,86,0.00,,,-99.99,0.000000,,2013-12-19 05:42:00,
2013-12-18 20:52:00,27.0,23.0,-100.00,NE,38,4.0,12.0,86,0.00,,,-99.99,0.000000,,2013-12-19 05:52:00,
2013-12-18 21:22:00,26.0,25.0,-100.00,NNE,12,4.0,11.0,94,0.00,,,0.00,0.000000,,2013-12-19 06:22:00,
2013-12-18 21:32:00,26.0,25.0,-100.00,NNE,12,4.0,11.0,94,0.00,,,0.00,0.000000,,2013-12-19 06:32:00,
2013-12-18 21:42:00,26.0,25.0,-100.00,NNE,12,4.0,11.0,94,0.00,,,0.00,0.000000,,2013-12-19 06:42:00,
2013-12-18 21:52:00,26.0,25.0,-100.00,NNE,12,4.0,11.0,94,0.00,,,0.00,0.000000,,2013-12-19 06:52:00,
2013-12-18 22:21:00,26.0,24.0,-100.00,North,5,4.0,10.0,93,0.00,,,0.00,0.000000,,2013-12-19 07:21:00,
2013-12-18 22:32:00,26.0,24.0,-100.00,North,5,4.0,10.0,93,0.00,,,0.00,0.000000,,2013-12-19 07:32:00,
2013-12-18 22:42:00,26.0,24.0,-100.00,North,5,4.0,10.0,93,0.00,,,0.00,0.000000,,2013-12-19 07:42:00,
2013-12-18 22:52:00,26.0,24.0,-100.00,North,5,4.0,10.0,93,0.00,,,0.00,0.000000,,2013-12-19 07:52:00,
2013-12-18 23:21:00,28.0,26.0,-100.00,North,2,4.0,14.0,91,0.00,,,0.00,0.000000,,2013-12-19 08:21:00,
2013-12-18 23:32:00,28.0,26.0,-100.00,North,2,4.0,14.0,91,0.00,,,0.00,0.000000,,2013-12-19 08:32:00,
2013-12-18 23:42:00,28.0,26.0,-100.00,North,2,4.0,14.0,91,0.00,,,0.00,0.000000,,2013-12-19 08:42:00,
2013-12-18 23:52:00,28.0,26.0,-100.00,North,2,4.0,14.0,91,0.00,,,0.00,0.000000,,2013-12-19 08:52:00,